createdAt,value
2022-10-11T00:01:02.756Z,12.56
2022-10-11T00:03:30.918Z,12.62
2022-10-11T00:05:58.000Z,12.61
2022-10-11T00:08:27.948Z,12.44
2022-10-11T00:11:06.515Z,12.44
2022-10-11T00:13:34.289Z,12.28
2022-10-11T00:16:14.255Z,12.15
2022-10-11T00:18:42.108Z,12.07
2022-10-11T00:21:13.654Z,12.29
2022-10-11T00:23:43.338Z,12.40
2022-10-11T00:26:13.965Z,12.45
2022-10-11T00:28:45.784Z,12.31
2022-10-11T00:31:16.266Z,12.16
2022-10-11T00:33:43.400Z,12.38
2022-10-11T00:36:17.440Z,12.36
2022-10-11T00:38:45.532Z,12.17
2022-10-11T00:41:15.402Z,12.24
2022-10-11T00:43:44.950Z,12.46
2022-10-11T00:46:30.828Z,12.50
2022-10-11T00:49:05.886Z,12.51
2022-10-11T00:51:53.773Z,12.27
2022-10-11T00:54:26.045Z,12.27
2022-10-11T00:57:07.580Z,12.25
2022-10-11T00:59:41.517Z,12.32
2022-10-11T01:02:10.436Z,12.38
2022-10-11T01:04:40.566Z,12.41
2022-10-11T01:07:11.294Z,12.26
2022-10-11T01:09:40.421Z,12.26
2022-10-11T01:12:23.279Z,12.21
2022-10-11T01:15:00.060Z,12.29
2022-10-11T01:17:59.205Z,12.30
2022-10-11T01:20:57.242Z,12.33
2022-10-11T01:24:10.573Z,12.12
2022-10-11T01:27:01.509Z,12.14
2022-10-11T01:29:47.172Z,12.11
2022-10-11T01:32:24.884Z,12.18
2022-10-11T01:35:32.736Z,12.13
2022-10-11T01:38:46.962Z,12.05
2022-10-11T01:41:39.289Z,12.20
2022-10-11T01:44:13.524Z,12.19
2022-10-11T01:46:41.371Z,12.18
2022-10-11T01:49:09.661Z,12.02
2022-10-11T01:51:46.371Z,12.08
2022-10-11T01:54:44.133Z,12.10
2022-10-11T01:57:46.980Z,12.09
2022-10-11T02:00:21.877Z,12.05
2022-10-11T02:03:16.179Z,11.92
2022-10-11T02:06:14.686Z,11.86
2022-10-11T02:09:08.285Z,11.71
2022-10-11T02:11:39.365Z,11.87
2022-10-11T02:14:14.793Z,11.85
2022-10-11T02:16:58.571Z,11.73
2022-10-11T02:19:35.541Z,11.97
2022-10-11T02:22:16.029Z,12.18
2022-10-11T02:24:50.882Z,12.32
2022-10-11T02:27:26.008Z,12.23
2022-10-11T02:29:58.462Z,12.34
2022-10-11T02:32:29.126Z,12.13
2022-10-11T02:35:01.070Z,12.44
2022-10-11T02:37:50.943Z,12.42
2022-10-11T02:40:40.205Z,11.94
2022-10-11T02:43:24.627Z,12.13
2022-10-11T02:45:58.677Z,12.01
2022-10-11T02:48:31.539Z,12.22
2022-10-11T02:51:03.908Z,12.24
2022-10-11T02:53:31.089Z,12.24
2022-10-11T02:56:00.550Z,12.33
2022-10-11T02:58:29.525Z,12.03
2022-10-11T03:00:56.426Z,12.04
2022-10-11T03:03:25.347Z,12.11
2022-10-11T03:06:00.045Z,12.01
2022-10-11T03:08:29.630Z,11.91
2022-10-11T03:10:58.619Z,11.77
2022-10-11T03:13:28.356Z,11.61
2022-10-11T03:16:03.239Z,11.80
2022-10-11T03:18:31.492Z,11.81
2022-10-11T03:21:02.956Z,11.77
2022-10-11T03:23:32.839Z,11.88
2022-10-11T03:25:59.671Z,11.96
2022-10-11T03:28:26.760Z,11.79
2022-10-11T03:30:57.043Z,11.81
2022-10-11T03:33:23.858Z,11.72
2022-10-11T03:35:50.758Z,11.73
2022-10-11T03:38:21.935Z,11.61
2022-10-11T03:40:51.880Z,11.64
2022-10-11T03:43:23.956Z,11.70
2022-10-11T03:45:50.795Z,11.67
2022-10-11T03:48:17.587Z,11.44
2022-10-11T03:50:51.280Z,11.51
2022-10-11T03:53:18.097Z,11.61
2022-10-11T03:55:45.450Z,11.59
2022-10-11T03:58:15.035Z,11.43
2022-10-11T04:00:43.359Z,11.42
2022-10-11T04:03:10.205Z,11.67
2022-10-11T04:05:39.347Z,11.69
2022-10-11T04:08:12.107Z,11.70
2022-10-11T04:10:40.101Z,11.68
2022-10-11T04:13:07.436Z,11.71
2022-10-11T04:15:34.457Z,11.41
2022-10-11T04:18:04.667Z,11.33
2022-10-11T04:20:31.717Z,11.37
2022-10-11T04:23:01.208Z,11.49
2022-10-11T04:25:30.674Z,11.46
2022-10-11T04:28:00.643Z,11.46
2022-10-11T04:30:33.992Z,11.59
2022-10-11T04:33:01.023Z,11.52
2022-10-11T04:35:31.417Z,11.43
2022-10-11T04:38:00.865Z,11.37
2022-10-11T04:40:27.772Z,11.34
2022-10-11T04:43:01.930Z,11.52
2022-10-11T04:45:28.895Z,11.52
2022-10-11T04:47:58.230Z,11.42
2022-10-11T04:50:26.371Z,11.32
2022-10-11T04:52:58.262Z,11.30
2022-10-11T04:55:25.180Z,11.27
2022-10-11T04:57:52.065Z,11.40
2022-10-11T05:00:21.957Z,11.22
2022-10-11T05:02:48.839Z,11.45
2022-10-11T05:05:17.713Z,11.46
2022-10-11T05:07:46.848Z,11.44
2022-10-11T05:10:13.811Z,11.49
2022-10-11T05:12:40.716Z,11.49
2022-10-11T05:15:08.779Z,11.48
2022-10-11T05:17:35.955Z,11.56
2022-10-11T05:20:02.819Z,11.45
2022-10-11T05:22:29.702Z,11.55
2022-10-11T05:24:56.554Z,11.52
2022-10-11T05:27:25.924Z,11.57
2022-10-11T05:29:55.778Z,11.53
2022-10-11T05:32:25.630Z,11.54
2022-10-11T05:34:54.597Z,11.46
2022-10-11T05:37:24.345Z,11.46
2022-10-11T05:39:51.202Z,11.53
2022-10-11T05:42:18.029Z,11.52
2022-10-11T05:44:44.812Z,11.37
2022-10-11T05:47:14.679Z,11.27
2022-10-11T05:49:41.478Z,11.11
2022-10-11T05:52:10.411Z,11.19
2022-10-11T05:54:37.195Z,11.26
2022-10-11T05:57:04.210Z,11.40
2022-10-11T05:59:31.641Z,11.33
2022-10-11T06:01:58.527Z,11.24
2022-10-11T06:04:25.393Z,11.61
2022-10-11T06:06:55.251Z,11.77
2022-10-11T06:09:24.295Z,12.02
2022-10-11T06:11:51.101Z,11.65
2022-10-11T06:14:20.296Z,11.67
2022-10-11T06:16:47.175Z,11.44
2022-10-11T06:19:16.956Z,11.77
2022-10-11T06:21:46.698Z,11.58
2022-10-11T06:24:16.170Z,11.47
2022-10-11T06:26:54.475Z,11.42
2022-10-11T06:29:22.503Z,11.59
2022-10-11T06:31:49.631Z,11.63
2022-10-11T06:34:16.574Z,11.72
2022-10-11T06:36:45.995Z,11.79
2022-10-11T06:39:15.341Z,11.99
2022-10-11T06:41:46.707Z,12.21
2022-10-11T06:44:15.032Z,13.59
2022-10-11T06:46:41.904Z,15.08
2022-10-11T06:49:08.769Z,15.39
2022-10-11T06:51:35.750Z,16.28
2022-10-11T06:54:03.440Z,16.62
2022-10-11T06:56:31.789Z,16.24
2022-10-11T06:58:59.803Z,15.78
2022-10-11T07:01:27.393Z,15.80
2022-10-11T07:03:56.028Z,15.46
2022-10-11T07:06:27.045Z,16.03
2022-10-11T07:08:57.443Z,16.20
2022-10-11T07:11:28.010Z,16.47
2022-10-11T07:13:58.779Z,15.41
2022-10-11T07:16:26.684Z,15.52
2022-10-11T07:19:00.184Z,15.42
2022-10-11T07:21:29.524Z,15.50
2022-10-11T07:24:00.821Z,16.17
2022-10-11T07:26:32.418Z,17.93
2022-10-11T07:29:04.460Z,19.61
2022-10-11T07:31:31.841Z,20.74
2022-10-11T07:33:58.801Z,21.48
2022-10-11T07:36:26.109Z,22.32
2022-10-11T07:38:56.023Z,22.98
2022-10-11T07:41:24.935Z,23.40
2022-10-11T07:43:52.066Z,22.67
2022-10-11T07:46:21.173Z,23.39
2022-10-11T07:48:50.295Z,23.68
2022-10-11T07:51:21.521Z,22.86
2022-10-11T07:53:55.398Z,21.78
2022-10-11T07:56:29.904Z,21.01
2022-10-11T07:59:03.486Z,20.91
2022-10-11T08:01:33.986Z,21.89
2022-10-11T08:04:00.989Z,22.14
2022-10-11T08:06:32.428Z,23.01
2022-10-11T08:09:01.070Z,23.57
2022-10-11T08:11:35.090Z,23.65
2022-10-11T08:14:08.700Z,24.60
2022-10-11T08:16:37.607Z,25.04
2022-10-11T08:19:06.120Z,25.58
2022-10-11T08:21:35.990Z,26.18
2022-10-11T08:24:04.443Z,26.99
2022-10-11T08:26:37.131Z,26.60
2022-10-11T08:29:05.048Z,26.85
2022-10-11T08:31:33.971Z,26.59
2022-10-11T08:34:01.195Z,26.95
2022-10-11T08:36:28.060Z,26.84
2022-10-11T08:38:54.877Z,26.85
2022-10-11T08:41:43.315Z,27.25
2022-10-11T08:44:58.690Z,27.30
2022-10-11T08:47:38.022Z,26.76
2022-10-11T08:50:17.856Z,28.11
2022-10-11T08:53:06.987Z,28.46
2022-10-11T08:55:50.940Z,27.86
2022-10-11T08:58:24.632Z,28.38
2022-10-11T09:00:58.612Z,28.63
2022-10-11T09:03:46.802Z,29.64
2022-10-11T09:06:43.960Z,29.31
2022-10-11T09:09:24.612Z,29.71
2022-10-11T09:12:19.949Z,29.77
2022-10-11T09:15:14.615Z,30.68
2022-10-11T09:18:15.928Z,29.97
2022-10-11T09:21:00.904Z,30.86
2022-10-11T09:24:06.478Z,30.97
2022-10-11T09:26:50.017Z,30.71
2022-10-11T09:29:40.419Z,30.91
2022-10-11T09:32:16.291Z,32.34
2022-10-11T09:34:45.990Z,31.92
2022-10-11T09:37:38.479Z,31.62
2022-10-11T09:40:35.985Z,31.39
2022-10-11T09:43:02.832Z,31.15
2022-10-11T09:45:29.734Z,32.18
2022-10-11T09:48:03.059Z,32.81
2022-10-11T09:50:32.850Z,32.52
2022-10-11T09:53:07.804Z,32.80
2022-10-11T09:55:53.477Z,32.79
2022-10-11T09:58:26.274Z,31.52
2022-10-11T10:01:11.942Z,30.03
2022-10-11T10:03:46.136Z,30.84
2022-10-11T10:06:29.319Z,30.67
2022-10-11T10:09:30.134Z,30.41
2022-10-11T10:11:57.903Z,31.85
2022-10-11T10:14:29.087Z,32.12
2022-10-11T10:17:04.750Z,31.51
2022-10-11T10:19:48.845Z,32.48
2022-10-11T10:22:28.490Z,33.61
2022-10-11T10:24:57.629Z,34.37
2022-10-11T10:27:27.384Z,34.59
2022-10-11T10:30:09.808Z,36.41
2022-10-11T10:32:52.197Z,35.79
2022-10-11T10:35:40.874Z,36.54
2022-10-11T10:38:16.602Z,37.08
2022-10-11T10:41:01.914Z,37.82
2022-10-11T10:43:34.273Z,38.04
2022-10-11T10:46:30.676Z,38.02
2022-10-11T10:52:24.076Z,37.44
2022-10-11T10:55:06.812Z,38.14
2022-10-11T10:57:37.012Z,37.90
2022-10-11T11:00:24.747Z,38.31
2022-10-11T11:02:57.854Z,37.91
2022-10-11T11:05:59.519Z,35.80
2022-10-11T11:08:32.412Z,34.57
2022-10-11T11:11:42.395Z,34.47
2022-10-11T11:14:44.015Z,34.49
2022-10-11T11:17:50.386Z,35.76
2022-10-11T11:20:51.360Z,36.53
2022-10-11T11:23:48.311Z,36.06
2022-10-11T11:26:35.285Z,36.49
2022-10-11T11:29:33.499Z,37.20
2022-10-11T11:32:18.650Z,35.65
2022-10-11T11:35:32.285Z,32.43
2022-10-11T11:38:28.557Z,30.14
2022-10-11T11:41:02.759Z,28.95
2022-10-11T11:43:38.864Z,28.40
2022-10-11T11:46:17.363Z,28.63
2022-10-11T11:48:44.959Z,27.81
2022-10-11T11:51:21.717Z,27.55
2022-10-11T11:54:05.042Z,28.36
2022-10-11T11:56:53.489Z,29.02
2022-10-11T11:59:45.870Z,30.14
2022-10-11T12:02:45.278Z,30.68
2022-10-11T12:05:17.095Z,30.56
2022-10-11T12:07:58.875Z,29.23
2022-10-11T12:10:56.089Z,27.90
2022-10-11T12:13:36.367Z,26.55
2022-10-11T12:16:14.207Z,25.99
2022-10-11T12:18:51.319Z,25.34
2022-10-11T12:21:43.945Z,24.56
2022-10-11T12:24:23.377Z,24.07
2022-10-11T12:26:56.666Z,23.60
2022-10-11T12:29:48.318Z,22.95
2022-10-11T12:32:38.547Z,22.61
2022-10-11T12:35:30.700Z,22.36
2022-10-11T12:38:31.364Z,22.43
2022-10-11T12:41:13.297Z,21.81
2022-10-11T12:43:53.282Z,21.41
2022-10-11T12:46:29.267Z,21.34
2022-10-11T12:49:29.694Z,21.25
2022-10-11T12:52:08.453Z,20.81
2022-10-11T12:55:13.074Z,21.19
2022-10-11T12:58:17.402Z,21.19
2022-10-11T13:01:04.217Z,21.17
2022-10-11T13:03:42.835Z,21.19
2022-10-11T13:06:27.940Z,21.46
2022-10-11T13:09:21.333Z,21.61
2022-10-11T13:12:06.767Z,21.44
2022-10-11T13:14:42.901Z,21.48
2022-10-11T13:17:32.346Z,21.13
2022-10-11T13:20:18.171Z,21.10
2022-10-11T13:22:50.331Z,20.74
2022-10-11T13:25:31.315Z,20.78
2022-10-11T13:28:01.195Z,20.69
2022-10-11T13:30:36.382Z,20.07
2022-10-11T13:33:17.514Z,20.26
2022-10-11T13:35:47.447Z,20.34
2022-10-11T13:38:30.653Z,20.05
2022-10-11T13:41:02.308Z,19.91
2022-10-11T13:43:33.465Z,19.92
2022-10-11T13:46:05.253Z,19.72
2022-10-11T13:48:39.784Z,19.62
2022-10-11T13:51:16.881Z,19.64
2022-10-11T13:54:11.724Z,19.65
2022-10-11T13:56:50.937Z,19.74
2022-10-11T13:59:25.632Z,19.72
2022-10-11T14:02:00.001Z,19.78
2022-10-11T14:04:29.947Z,19.48
2022-10-11T14:07:03.165Z,19.52
2022-10-11T14:09:39.376Z,19.51
2022-10-11T14:12:44.424Z,19.35
2022-10-11T14:15:31.793Z,19.32
2022-10-11T14:18:01.859Z,19.19
2022-10-11T14:20:42.609Z,19.17
2022-10-11T14:23:14.251Z,19.03
2022-10-11T14:25:44.183Z,19.06
2022-10-11T14:28:13.444Z,19.07
2022-10-11T14:30:44.310Z,19.22
2022-10-11T14:33:14.278Z,18.93
2022-10-11T14:35:43.307Z,18.73
2022-10-11T14:38:15.031Z,18.78
2022-10-11T14:40:44.135Z,19.02
2022-10-11T14:43:13.469Z,18.61
2022-10-11T14:46:24.173Z,18.81
2022-10-11T14:48:56.012Z,18.60
2022-10-11T14:51:33.913Z,18.37
2022-10-11T14:54:00.804Z,18.67
2022-10-11T14:56:27.626Z,18.44
2022-10-11T14:58:56.811Z,18.60
2022-10-11T15:01:23.761Z,18.83
2022-10-11T15:03:50.819Z,18.94
2022-10-11T15:06:29.618Z,18.37
2022-10-11T15:08:56.577Z,18.15
2022-10-11T15:11:24.136Z,18.53
2022-10-11T15:13:55.794Z,18.60
2022-10-11T15:16:22.960Z,18.32
2022-10-11T15:18:55.014Z,18.21
2022-10-11T15:21:30.262Z,17.79
2022-10-11T15:23:57.195Z,18.08
2022-10-11T15:26:29.165Z,18.19
2022-10-11T15:28:57.697Z,18.27
2022-10-11T15:31:24.605Z,18.26
2022-10-11T15:33:54.275Z,18.27
2022-10-11T15:36:22.862Z,18.44
2022-10-11T15:38:52.294Z,18.54
2022-10-11T15:41:20.106Z,18.44
2022-10-11T15:43:50.596Z,18.50
2022-10-11T15:46:25.079Z,18.55
2022-10-11T15:48:54.628Z,18.64
2022-10-11T15:51:21.541Z,18.40
2022-10-11T15:53:51.397Z,18.20
2022-10-11T15:56:19.558Z,18.45
2022-10-11T15:58:46.528Z,18.24
2022-10-11T16:01:18.113Z,18.24
2022-10-11T16:03:49.649Z,18.42
2022-10-11T16:06:18.382Z,18.16
2022-10-11T16:08:48.066Z,18.23
2022-10-11T16:11:15.050Z,18.31
2022-10-11T16:13:47.598Z,18.38
2022-10-11T16:16:14.462Z,18.23
2022-10-11T16:18:41.309Z,18.34
2022-10-11T16:21:15.422Z,18.32
2022-10-11T16:23:44.714Z,18.23
2022-10-11T16:26:16.316Z,18.17
2022-10-11T16:28:43.900Z,18.33
2022-10-11T16:31:20.739Z,18.30
2022-10-11T16:33:47.901Z,18.17
2022-10-11T16:36:40.066Z,18.07
2022-10-11T16:39:18.300Z,18.08
2022-10-11T16:41:46.102Z,17.93
2022-10-11T16:44:16.759Z,17.90
2022-10-11T16:46:48.247Z,17.85
2022-10-11T16:49:20.138Z,17.75
2022-10-11T16:51:47.187Z,17.85
2022-10-11T16:54:20.427Z,17.55
2022-10-11T16:56:50.309Z,17.66
2022-10-11T16:59:17.558Z,17.70
2022-10-11T17:01:45.182Z,17.57
2022-10-11T17:04:13.056Z,17.38
2022-10-11T17:06:41.343Z,17.33
2022-10-11T17:09:11.887Z,17.36
2022-10-11T17:11:44.278Z,17.34
2022-10-11T17:14:14.532Z,17.39
2022-10-11T17:16:41.710Z,17.36
2022-10-11T17:19:13.769Z,17.64
2022-10-11T17:21:43.675Z,17.41
2022-10-11T17:24:12.788Z,17.19
2022-10-11T17:26:39.646Z,17.32
2022-10-11T17:29:06.580Z,17.27
2022-10-11T17:31:33.508Z,17.38
2022-10-11T17:34:00.904Z,17.48
2022-10-11T17:36:36.139Z,17.49
2022-10-11T17:39:10.118Z,17.38
2022-10-11T17:41:38.142Z,17.45
2022-10-11T17:44:05.498Z,17.60
2022-10-11T17:46:32.832Z,17.52
2022-10-11T17:49:01.915Z,17.55
2022-10-11T17:51:32.082Z,17.57
2022-10-11T17:53:58.982Z,17.53
2022-10-11T17:56:32.422Z,17.36
2022-10-11T17:59:06.635Z,17.32
2022-10-11T18:01:36.097Z,16.99
2022-10-11T18:04:06.231Z,17.02
2022-10-11T18:06:39.432Z,17.02
2022-10-11T18:09:07.215Z,17.12
2022-10-11T18:11:34.367Z,17.19
2022-10-11T18:14:01.690Z,17.16
2022-10-11T18:16:30.380Z,17.01
2022-10-11T18:18:58.590Z,17.04
2022-10-11T18:21:31.199Z,16.97
2022-10-11T18:24:11.433Z,16.88
2022-10-11T18:26:41.362Z,16.90
2022-10-11T18:29:08.799Z,16.92
2022-10-11T18:31:35.825Z,16.91
2022-10-11T18:34:06.694Z,16.89
2022-10-11T18:36:36.637Z,16.97
2022-10-11T18:39:10.443Z,16.86
2022-10-11T18:41:39.274Z,16.92
2022-10-11T18:44:09.264Z,16.85
2022-10-11T18:46:38.685Z,16.90
2022-10-11T18:49:07.757Z,16.79
2022-10-11T18:51:40.479Z,16.77
2022-10-11T18:54:10.083Z,16.68
2022-10-11T18:56:39.644Z,16.64
2022-10-11T18:59:07.165Z,16.17
2022-10-11T19:01:44.918Z,16.24
2022-10-11T19:04:18.661Z,16.18
2022-10-11T19:06:48.622Z,16.10
2022-10-11T19:09:26.088Z,16.16
2022-10-11T19:11:55.639Z,16.13
2022-10-11T19:14:30.764Z,15.94
2022-10-11T19:16:58.184Z,16.05
2022-10-11T19:19:29.762Z,15.99
2022-10-11T19:21:56.765Z,16.03
2022-10-11T19:24:27.428Z,16.04
2022-10-11T19:27:02.065Z,16.03
2022-10-11T19:29:30.461Z,16.04
2022-10-11T19:32:03.527Z,16.06
2022-10-11T19:34:31.655Z,16.05
2022-10-11T19:37:01.019Z,16.12
2022-10-11T19:39:29.537Z,16.06
2022-10-11T19:41:56.551Z,16.05
2022-10-11T19:44:34.466Z,16.05
2022-10-11T19:47:05.354Z,16.05
2022-10-11T19:49:32.802Z,16.06
2022-10-11T19:52:01.056Z,16.02
2022-10-11T19:54:28.275Z,16.00
2022-10-11T19:56:55.160Z,15.97
2022-10-11T19:59:22.034Z,15.88
2022-10-11T20:01:52.767Z,15.87
2022-10-11T20:07:11.451Z,15.91
2022-10-11T20:09:38.337Z,15.98
2022-10-11T20:12:05.691Z,15.91
2022-10-11T20:14:37.203Z,15.83
2022-10-11T20:17:04.074Z,15.77
2022-10-11T20:19:31.571Z,15.62
2022-10-11T20:22:01.888Z,15.74
2022-10-11T20:24:34.226Z,15.49
2022-10-11T20:27:05.501Z,15.58
2022-10-11T20:29:32.804Z,15.66
2022-10-11T20:31:59.713Z,15.69
2022-10-11T20:34:29.096Z,15.75
2022-10-11T20:36:55.918Z,15.63
2022-10-11T20:39:23.690Z,15.72
2022-10-11T20:41:50.609Z,15.66
2022-10-11T20:44:17.904Z,15.56
2022-10-11T20:46:47.143Z,15.59
2022-10-11T20:49:19.926Z,15.44
2022-10-11T20:51:46.949Z,15.51
2022-10-11T20:54:13.922Z,15.49
2022-10-11T20:56:41.191Z,15.51
2022-10-11T20:59:13.429Z,15.62
2022-10-11T21:01:46.220Z,15.56
2022-10-11T21:04:21.802Z,15.46
2022-10-11T21:06:48.941Z,15.24
2022-10-11T21:09:19.097Z,15.30
2022-10-11T21:11:48.530Z,15.34
2022-10-11T21:14:15.551Z,15.28
2022-10-11T21:16:42.400Z,15.28
2022-10-11T21:19:15.292Z,15.19
2022-10-11T21:21:42.921Z,15.20
2022-10-11T21:24:10.267Z,15.25
2022-10-11T21:26:37.278Z,15.17
2022-10-11T21:29:04.720Z,15.11
2022-10-11T21:31:34.374Z,14.99
2022-10-11T21:34:02.370Z,14.95
2022-10-11T21:36:33.795Z,15.03
2022-10-11T21:39:00.686Z,15.15
2022-10-11T21:41:31.135Z,15.21
2022-10-11T21:44:01.308Z,15.25
2022-10-11T21:47:04.868Z,15.16
2022-10-11T21:49:23.349Z,15.05
2022-10-11T21:51:50.391Z,15.05
2022-10-11T21:54:19.985Z,14.94
2022-10-11T21:56:46.944Z,15.05
2022-10-11T21:59:18.477Z,15.13
2022-10-11T22:01:45.428Z,15.24
2022-10-11T22:04:12.739Z,15.22
2022-10-11T22:06:40.011Z,15.20
2022-10-11T22:09:08.747Z,15.15
2022-10-11T22:11:38.429Z,15.14
2022-10-11T22:14:05.323Z,15.13
2022-10-11T22:16:36.020Z,15.08
2022-10-11T22:19:03.365Z,15.06
2022-10-11T22:21:32.471Z,14.96
2022-10-11T22:23:59.646Z,14.99
2022-10-11T22:26:34.666Z,14.99
2022-10-11T22:29:01.791Z,14.92
2022-10-11T22:31:29.800Z,14.90
2022-10-11T22:33:59.715Z,14.72
2022-10-11T22:36:28.170Z,14.73
2022-10-11T22:38:54.976Z,14.61
2022-10-11T22:41:24.084Z,14.72
2022-10-11T22:43:53.001Z,14.71
2022-10-11T22:46:19.885Z,14.71
2022-10-11T22:48:46.757Z,14.63
2022-10-11T22:51:14.407Z,14.54
2022-10-11T22:53:41.339Z,14.69
2022-10-11T22:56:08.923Z,14.73
2022-10-11T22:58:38.362Z,14.69
2022-10-11T23:01:14.933Z,14.36
2022-10-11T23:03:42.570Z,14.37
2022-10-11T23:06:12.797Z,14.19
2022-10-11T23:08:39.661Z,14.17
2022-10-11T23:11:10.495Z,14.11
2022-10-11T23:13:37.608Z,14.08
2022-10-11T23:16:10.654Z,14.25
2022-10-11T23:18:40.247Z,14.43
2022-10-11T23:21:07.990Z,14.43
2022-10-11T23:23:39.578Z,14.52
2022-10-11T23:26:15.489Z,14.21
2022-10-11T23:28:46.373Z,14.34
2022-10-11T23:31:17.209Z,14.26
2022-10-11T23:33:47.904Z,14.22
2022-10-11T23:36:24.018Z,14.11
2022-10-11T23:38:58.606Z,14.21
2022-10-11T23:41:28.096Z,14.25
2022-10-11T23:43:55.153Z,14.27
2022-10-11T23:46:24.884Z,14.22
2022-10-11T23:48:56.579Z,14.15
2022-10-11T23:51:23.443Z,14.08
2022-10-11T23:53:53.083Z,14.24
2022-10-11T23:56:20.052Z,14.23
2022-10-11T23:58:49.111Z,14.13
